METAR & TAF locaux

METAR
2019/03/23 14:00 LFST 231400Z AUTO 03007KT CAVOK 19/04 Q1026 NOSIG
2019/03/23 14:20 EDSB 231420Z VRB02KT CAVOK 19/02 Q1026
2019/03/23 14:00 LFGA 231400Z AUTO 03004KT 330V080 CAVOK 19/03 Q1026
TAF
2019/03/23 12:21 TAF LFST 231100Z 2312/2412 VRB03KT CAVOK TEMPO 2312/2317 35010KT PROB40 TEMPO 2402/2406 BKN008 BECMG 2406/2410 BKN020
2019/03/23 12:48 TAF EDSB 231100Z 2312/2412 28005KT CAVOK BECMG 2316/2318 03003KT
www.noaa.gov

Ne pas utiliser pour préparer ou effectuer un vol: Utilisez la documentation officielle disponible sur aviation.meteo.fr (Aéroweb)


"Le soleil du matin ne dure pas forcément toute la journée."

Animation satellite IR

Meteociel.fr

"Derrière chaque nuage se cache le ciel bleu."

Prévisions 7 jours


Meteoblue.com

"Quand les crapauds chantent, le beau temps s'avance !"

Vigilance météo

vigilance-meteo.fr

"Tout nuage n'enfante pas une tempête."
William Shakespeare